Time;durP1;ratioP1;P1;durP2;ratioP2;P2;SDS_P1;SDS_P2;PMS_P1;PMS_P2;Temp;Humidity;BMP_temperature;BMP_pressure;BME280_temperature;BME280_humidity;BME280_pressure;Samples;Min_cycle;Max_cycle;Signal;HPM_P1;HPM_P2
2022/12/30 00:00:31;;;;;;;5.38;1.42;;;11.50;99.90;;;;;;10520205;28;20040;-27
2022/12/30 00:05:34;;;;;;;10.23;2.10;;;12.40;99.90;;;;;;10517185;28;20063;-28
2022/12/30 00:10:36;;;;;;;5.97;1.55;;;13.30;98.00;;;;;;10525482;28;20131;-27
2022/12/30 00:37:02;;;;;;;16.33;2.72;;;14.90;80.30;;;;;;10511631;28;19925;-26
2022/12/30 00:47:24;;;;;;;6.63;1.23;;;12.50;99.90;;;;;;10519028;28;20040;-27
2022/12/30 00:57:46;;;;;;;12.98;2.03;;;12.90;99.90;;;;;;10504891;28;20053;-28
2022/12/30 01:02:48;;;;;;;6.22;1.27;;;11.80;99.90;;;;;;10521051;28;20131;-29
2022/12/30 01:07:52;;;;;;;10.30;1.98;;;12.80;99.40;;;;;;10515368;28;20093;-32
2022/12/30 01:12:54;;;;;;;10.02;1.10;;;11.70;99.90;;;;;;10509533;28;20101;-26
2022/12/30 01:17:56;;;;;;;6.22;1.25;;;12.20;99.90;;;;;;10510620;28;20066;-26
2022/12/30 01:22:59;;;;;;;12.30;2.05;;;11.70;99.90;;;;;;10504642;28;20594;-26
2022/12/30 01:28:01;;;;;;;7.10;1.33;;;10.10;99.90;;;;;;10507146;28;20485;-28
2022/12/30 01:33:03;;;;;;;8.05;1.67;;;11.70;99.90;;;;;;10515602;28;20135;-29
2022/12/30 01:38:06;;;;;;;5.15;1.10;;;15.00;90.80;;;;;;10505678;28;20056;-28
2022/12/30 01:43:12;;;;;;;3.35;1.25;;;15.60;85.60;;;;;;10508754;28;20059;-28
2022/12/30 01:48:23;;;;;;;6.22;1.15;;;14.50;91.40;;;;;;10511035;28;20049;-26
2022/12/30 01:53:29;;;;;;;3.17;0.85;;;15.50;86.20;;;;;;10507881;28;20055;-26
2022/12/30 01:58:34;;;;;;;13.07;1.48;;;15.40;88.30;;;;;;10503964;28;20122;-27
2022/12/30 02:03:39;;;;;;;7.90;1.45;;;14.80;90.20;;;;;;10506322;28;20044;-25
2022/12/30 02:08:42;;;;;;;10.98;2.15;;;14.20;91.90;;;;;;10512718;28;20052;-29
2022/12/30 02:13:44;;;;;;;10.10;1.25;;;11.60;97.10;;;;;;10515073;28;20162;-27
2022/12/30 02:18:57;;;;;;;13.68;2.33;;;12.40;95.20;;;;;;10522490;28;20748;-27
2022/12/30 02:24:48;;;;;;;4.85;1.55;;;11.70;99.90;;;;;;10514390;28;20470;-26
2022/12/30 02:30:18;;;;;;;12.65;2.00;;;10.30;99.90;;;;;;10394975;28;20079;-32
2022/12/30 02:35:27;;;;;;;11.23;1.83;;;10.90;99.90;;;;;;10513190;28;20055;-27
2022/12/30 02:45:55;;;;;;;14.45;1.90;;;11.60;99.90;;;;;;10514905;28;20134;-27
2022/12/30 02:56:20;;;;;;;;;;;10.70;99.90;;;;;;10500886;28;20071;-27
2022/12/30 03:07:09;;;;;;;6.05;1.98;;;10.00;99.90;;;;;;10496371;28;20135;-27
2022/12/30 03:12:22;;;;;;;4.10;1.38;;;12.30;99.70;;;;;;10512854;28;20113;-30
2022/12/30 03:17:29;;;;;;;9.10;1.50;;;12.30;99.90;;;;;;10516658;28;20045;-26
2022/12/30 03:27:54;;;;;;;10.90;1.83;;;13.70;93.50;;;;;;10525054;28;20044;-26
2022/12/30 03:32:56;;;;;;;3.53;1.10;;;12.70;93.50;;;;;;10533330;28;20052;-28
2022/12/30 03:38:01;;;;;;;2.60;0.90;;;13.30;95.60;;;;;;10529127;28;20083;-29
2022/12/30 03:43:05;;;;;;;6.60;1.20;;;15.10;89.30;;;;;;10530987;28;20071;-27
2022/12/30 03:48:07;;;;;;;7.20;1.70;;;15.80;81.80;;;;;;10528513;28;20076;-30
2022/12/30 03:53:10;;;;;;;3.38;0.90;;;15.60;80.20;;;;;;10533355;28;20120;-27
2022/12/30 03:58:12;;;;;;;5.07;1.10;;;15.70;81.80;;;;;;10526300;28;20543;-28
2022/12/30 04:03:14;;;;;;;4.03;1.10;;;15.70;80.60;;;;;;10536321;28;20125;-28
2022/12/30 04:08:17;;;;;;;4.63;1.10;;;15.80;80.80;;;;;;10534655;28;20083;-27
2022/12/30 04:13:19;;;;;;;1.70;0.80;;;16.20;77.50;;;;;;10535250;28;20080;-28
2022/12/30 04:18:21;;;;;;;4.35;1.17;;;16.20;77.70;;;;;;10533939;28;20386;-27
2022/12/30 04:23:24;;;;;;;3.73;1.33;;;15.80;76.90;;;;;;10534127;28;20083;-26
2022/12/30 04:28:26;;;;;;;8.18;1.60;;;14.50;81.60;;;;;;10535808;28;20520;-24
2022/12/30 04:33:28;;;;;;;3.05;0.85;;;14.20;89.20;;;;;;10534694;28;20052;-27
2022/12/30 04:38:31;;;;;;;7.60;1.53;;;11.50;99.90;;;;;;10532348;28;20083;-26
2022/12/30 04:43:33;;;;;;;2.97;1.10;;;14.00;93.00;;;;;;10531686;28;20052;-27
2022/12/30 04:48:35;;;;;;;3.42;0.90;;;14.20;90.70;;;;;;10528600;28;20098;-27
2022/12/30 04:53:38;;;;;;;3.75;1.10;;;15.00;89.50;;;;;;10525970;28;20067;-29
2022/12/30 04:58:40;;;;;;;2.42;1.45;;;14.20;93.00;;;;;;10523503;28;20143;-28
2022/12/30 05:03:42;;;;;;;4.27;1.20;;;15.00;88.90;;;;;;10521405;28;20052;-27
2022/12/30 05:08:45;;;;;;;6.10;1.03;;;15.80;80.00;;;;;;10530835;28;20048;-29
2022/12/30 05:13:47;;;;;;;2.67;0.82;;;15.90;78.20;;;;;;10520770;28;20813;-31
2022/12/30 05:18:49;;;;;;;5.37;1.10;;;16.00;77.70;;;;;;10522284;28;20093;-29
2022/12/30 05:29:12;;;;;;;2.55;0.95;;;16.40;76.30;;;;;;10526625;28;20044;-28
2022/12/30 05:34:14;;;;;;;4.85;0.88;;;16.90;72.10;;;;;;10531586;28;20060;-27
2022/12/30 05:39:17;;;;;;;2.50;0.73;;;17.10;71.70;;;;;;10531958;28;20048;-30
2022/12/30 05:44:19;;;;;;;2.33;0.90;;;17.20;71.10;;;;;;10530927;28;20044;-32
2022/12/30 05:49:21;;;;;;;3.90;0.87;;;17.10;72.20;;;;;;10526103;28;20048;-29
2022/12/30 05:54:24;;;;;;;1.97;0.67;;;17.30;70.80;;;;;;10520754;28;20542;-30
2022/12/30 05:59:26;;;;;;;1.85;0.90;;;17.40;70.20;;;;;;10517554;28;20533;-31
2022/12/30 06:04:28;;;;;;;3.10;0.87;;;17.50;70.20;;;;;;10530727;28;20052;-31
2022/12/30 06:09:31;;;;;;;4.05;0.98;;;17.50;70.20;;;;;;10528663;28;20106;-27
2022/12/30 06:14:33;;;;;;;4.00;0.73;;;17.50;70.00;;;;;;10522584;28;20051;-27
2022/12/30 06:19:35;;;;;;;7.17;1.47;;;17.40;70.50;;;;;;10519440;28;20056;-31
2022/12/30 06:24:38;;;;;;;1.23;0.77;;;17.50;70.10;;;;;;10526177;28;20176;-33
2022/12/30 06:29:40;;;;;;;3.50;0.75;;;17.50;70.00;;;;;;10530266;28;20079;-32
2022/12/30 06:34:41;;;;;;;5.23;1.00;;;17.60;69.10;;;;;;10530593;28;20135;-30
2022/12/30 06:39:45;;;;;;;1.70;0.87;;;17.60;69.80;;;;;;10519787;28;20532;-31
2022/12/30 06:44:46;;;;;;;4.20;0.73;;;17.60;69.60;;;;;;10528179;28;20074;-27
2022/12/30 06:49:48;;;;;;;2.67;1.03;;;17.50;69.60;;;;;;10521967;28;20039;-30
2022/12/30 06:54:51;;;;;;;1.23;0.50;;;17.60;70.20;;;;;;10520696;28;20512;-28
2022/12/30 06:59:53;;;;;;;2.13;1.00;;;17.60;69.60;;;;;;10506598;28;20138;-28
2022/12/30 07:15:31;;;;;;;3.20;0.88;;;17.70;68.90;;;;;;10496080;27;20128;-26
2022/12/30 07:20:33;;;;;;;3.70;1.00;;;17.70;70.00;;;;;;10498866;28;20056;-26
2022/12/30 07:25:35;;;;;;;4.15;1.45;;;17.60;68.70;;;;;;10497516;28;20511;-25
2022/12/30 07:30:38;;;;;;;6.38;1.08;;;17.70;70.10;;;;;;10489163;28;20477;-28
2022/12/30 07:35:40;;;;;;;2.55;1.00;;;17.70;70.50;;;;;;10486057;28;20044;-30
2022/12/30 07:40:42;;;;;;;4.22;1.45;;;17.70;70.90;;;;;;10494549;28;20178;-28
2022/12/30 07:45:45;;;;;;;5.50;0.70;;;17.50;71.00;;;;;;10486772;28;20413;-30
2022/12/30 07:50:47;;;;;;;8.07;1.17;;;17.40;72.10;;;;;;10491320;28;20076;-26
2022/12/30 07:55:49;;;;;;;5.82;2.00;;;17.50;71.60;;;;;;10498218;28;20040;-29
2022/12/30 08:00:52;;;;;;;5.97;1.33;;;17.60;71.50;;;;;;10483524;28;20057;-30
2022/12/30 08:05:54;;;;;;;7.63;1.52;;;17.50;71.90;;;;;;10495079;28;20062;-26
2022/12/30 08:10:56;;;;;;;11.90;1.53;;;17.50;72.00;;;;;;10490687;28;20052;-33
2022/12/30 08:15:59;;;;;;;5.30;1.05;;;17.40;72.30;;;;;;10483403;28;20063;-31
2022/12/30 08:21:02;;;;;;;4.63;1.75;;;17.40;73.40;;;;;;10485233;28;20102;-27
2022/12/30 08:26:05;;;;;;;5.80;1.50;;;17.50;73.40;;;;;;10454795;28;20041;-30
2022/12/30 08:31:10;;;;;;;3.72;1.40;;;17.40;74.70;;;;;;10455216;28;20087;-27
2022/12/30 08:36:14;;;;;;;6.82;1.65;;;17.40;77.80;;;;;;10457787;28;20446;-29
2022/12/30 08:41:19;;;;;;;3.42;1.15;;;17.40;75.40;;;;;;10448820;28;20156;-27
2022/12/30 08:46:22;;;;;;;3.40;1.00;;;17.50;75.20;;;;;;10451531;28;20049;-29
2022/12/30 08:51:24;;;;;;;8.50;1.50;;;17.50;76.90;;;;;;10459141;28;20541;-30
2022/12/30 08:56:28;;;;;;;5.33;1.27;;;17.50;75.60;;;;;;10458440;28;20132;-29
2022/12/30 09:01:33;;;;;;;3.83;1.17;;;17.40;76.80;;;;;;10456900;28;20483;-31
2022/12/30 09:06:37;;;;;;;2.45;1.17;;;17.50;76.80;;;;;;10460599;28;20048;-34
2022/12/30 09:11:41;;;;;;;2.10;0.85;;;17.50;76.60;;;;;;10458365;28;20053;-28
2022/12/30 09:16:44;;;;;;;3.95;1.10;;;17.60;76.20;;;;;;10462042;28;20087;-27
2022/12/30 09:21:46;;;;;;;2.47;1.02;;;17.50;76.50;;;;;;10450889;28;20061;-26
2022/12/30 09:26:48;;;;;;;4.27;1.47;;;17.40;77.20;;;;;;10450788;28;20098;-28
2022/12/30 09:31:51;;;;;;;5.50;1.10;;;17.30;75.70;;;;;;10453126;28;20079;-29
2022/12/30 09:36:53;;;;;;;5.75;1.00;;;17.50;77.00;;;;;;10450973;28;20140;-29
2022/12/30 09:47:24;;;;;;;8.60;1.10;;;17.30;76.70;;;;;;10458119;28;20163;-37
2022/12/30 09:52:30;;;;;;;5.72;1.15;;;17.40;75.20;;;;;;10442998;28;20502;-30
2022/12/30 09:57:35;;;;;;;3.33;1.13;;;17.40;74.70;;;;;;10437927;28;20069;-29
2022/12/30 10:02:59;;;;;;;2.13;0.98;;;17.40;75.50;;;;;;10447969;28;20143;-28
2022/12/30 10:08:10;;;;;;;4.25;1.00;;;17.40;75.90;;;;;;10462484;28;20095;-28
2022/12/30 10:13:18;;;;;;;3.17;1.00;;;17.30;75.70;;;;;;10469121;28;20064;-27
2022/12/30 10:18:34;;;;;;;3.75;1.20;;;17.40;76.00;;;;;;10457655;28;20515;-27
2022/12/30 10:23:51;;;;;;;2.90;0.88;;;17.30;76.30;;;;;;10446234;28;20041;-29
2022/12/30 10:28:59;;;;;;;3.90;0.77;;;17.20;70.70;;;;;;10456670;28;20053;-26
2022/12/30 10:34:09;;;;;;;4.22;1.08;;;17.30;75.40;;;;;;10458360;28;20196;-26
2022/12/30 10:39:16;;;;;;;4.93;0.80;;;17.30;75.60;;;;;;10448748;28;20469;-27
2022/12/30 10:44:24;;;;;;;3.65;0.98;;;17.20;75.00;;;;;;10449382;28;20051;-28
2022/12/30 10:49:49;;;;;;;3.67;0.90;;;17.40;74.40;;;;;;10454473;28;20460;-27
2022/12/30 10:54:51;;;;;;;1.30;0.80;;;17.10;76.10;;;;;;10445315;28;20057;-28
2022/12/30 10:59:56;;;;;;;1.50;0.60;;;17.30;74.70;;;;;;10450582;28;20150;-30
2022/12/30 11:05:01;;;;;;;3.10;0.90;;;17.00;77.60;;;;;;10449324;28;20484;-31
2022/12/30 11:10:14;;;;;;;4.47;0.82;;;16.80;78.00;;;;;;10450698;28;20049;-27
2022/12/30 11:15:19;;;;;;;2.50;1.08;;;16.90;75.80;;;;;;10451893;28;20119;-27
2022/12/30 11:20:31;;;;;;;4.28;0.80;;;16.70;77.90;;;;;;10445215;28;20563;-27
2022/12/30 11:25:35;;;;;;;2.53;0.53;;;16.80;75.80;;;;;;10460883;28;20132;-28
2022/12/30 11:30:55;;;;;;;3.25;1.27;;;16.60;77.20;;;;;;10466665;28;20836;-29
2022/12/30 11:36:16;;;;;;;4.47;0.73;;;16.60;76.60;;;;;;10462477;28;20449;-27
2022/12/30 11:41:27;;;;;;;2.63;0.82;;;17.00;75.10;;;;;;10455530;28;20077;-30
2022/12/30 11:46:31;;;;;;;4.03;1.00;;;17.10;74.30;;;;;;10465974;28;20053;-29
2022/12/30 11:51:42;;;;;;;2.17;0.80;;;17.00;74.40;;;;;;10450620;28;20099;-27
2022/12/30 11:56:53;;;;;;;3.53;0.60;;;17.20;73.50;;;;;;10459972;28;20142;-27
2022/12/30 12:01:57;;;;;;;3.40;1.65;;;17.10;72.60;;;;;;10470694;28;20052;-33
2022/12/30 12:07:01;;;;;;;4.10;0.70;;;17.20;73.50;;;;;;10468417;28;20493;-28
2022/12/30 12:12:08;;;;;;;6.43;0.90;;;16.90;74.00;;;;;;10469184;28;20064;-28
2022/12/30 12:17:25;;;;;;;1.77;0.70;;;17.20;73.70;;;;;;10463998;28;20136;-27
2022/12/30 12:22:35;;;;;;;1.25;0.73;;;17.00;74.00;;;;;;10463938;28;20048;-26
2022/12/30 12:27:36;;;;;;;2.10;0.70;;;17.10;72.20;;;;;;10457817;28;20110;-26
2022/12/30 12:33:01;;;;;;;3.03;0.70;;;17.10;75.20;;;;;;10456920;28;20497;-29
2022/12/30 12:38:20;;;;;;;1.67;0.60;;;17.20;73.40;;;;;;10446065;28;20095;-27
2022/12/30 12:43:24;;;;;;;2.40;0.60;;;17.20;73.50;;;;;;10458453;28;20493;-29
2022/12/30 12:48:42;;;;;;;4.68;0.88;;;17.20;74.20;;;;;;10461928;28;20462;-27
2022/12/30 12:54:08;;;;;;;2.28;0.80;;;17.00;73.50;;;;;;10454765;28;20049;-28
2022/12/30 12:59:24;;;;;;;3.42;0.70;;;17.20;74.10;;;;;;10455211;28;20508;-27
2022/12/30 13:04:38;;;;;;;3.78;0.82;;;17.20;74.30;;;;;;10448988;28;20103;-25
2022/12/30 13:09:57;;;;;;;2.53;0.60;;;17.10;74.00;;;;;;10446907;28;20501;-27
2022/12/30 13:15:21;;;;;;;2.72;0.70;;;17.20;74.10;;;;;;10455456;28;20201;-27
2022/12/30 13:20:28;;;;;;;2.95;0.70;;;17.20;74.30;;;;;;10469864;28;20048;-28
2022/12/30 13:25:37;;;;;;;0.85;0.50;;;17.10;73.90;;;;;;10473831;28;20052;-25
2022/12/30 13:30:46;;;;;;;1.10;0.50;;;17.20;74.90;;;;;;10476578;28;20044;-29
2022/12/30 13:35:58;;;;;;;2.25;0.57;;;17.20;75.00;;;;;;10465921;28;20049;-27
2022/12/30 13:41:21;;;;;;;1.77;0.60;;;17.00;75.80;;;;;;10466225;28;20037;-26
2022/12/30 13:46:25;;;;;;;1.08;0.30;;;16.80;77.70;;;;;;10465901;28;20410;-30
2022/12/30 13:51:29;;;;;;;2.38;0.60;;;17.20;75.60;;;;;;10469340;28;20131;-27
2022/12/30 13:56:37;;;;;;;1.63;0.63;;;16.70;79.10;;;;;;10452628;28;20049;-29
2022/12/30 14:01:40;;;;;;;1.00;0.45;;;16.70;77.50;;;;;;10454728;28;20583;-31
2022/12/30 14:06:42;;;;;;;;;;;16.80;78.50;;;;;;10452626;28;20167;-25
2022/12/30 14:17:40;;;;;;;0.95;0.40;;;17.30;75.90;;;;;;10567051;27;20756;-26
2022/12/30 14:23:04;;;;;;;1.33;0.50;;;16.70;79.90;;;;;;10560153;28;20044;-27
2022/12/30 14:28:13;;;;;;;0.30;0.25;;;16.50;80.90;;;;;;10559314;28;20120;-30
2022/12/30 14:33:26;;;;;;;1.77;0.47;;;15.70;88.70;;;;;;10565784;28;20092;-27
2022/12/30 14:38:37;;;;;;;1.25;0.40;;;15.80;88.20;;;;;;10571739;28;20052;-28
2022/12/30 14:43:44;;;;;;;2.78;0.43;;;16.50;82.90;;;;;;10569362;28;20134;-29
2022/12/30 14:49:03;;;;;;;1.52;0.50;;;16.50;81.00;;;;;;10579868;28;20574;-28
2022/12/30 14:54:06;;;;;;;0.35;0.32;;;16.20;86.10;;;;;;10565115;28;20136;-28
2022/12/30 14:59:12;;;;;;;0.40;0.40;;;16.30;85.80;;;;;;10565059;28;20408;-29
2022/12/30 15:04:17;;;;;;;0.60;0.43;;;15.50;91.40;;;;;;10565696;28;20048;-30
2022/12/30 15:09:25;;;;;;;0.50;0.40;;;15.40;91.90;;;;;;10559935;28;20508;-27
2022/12/30 15:14:27;;;;;;;1.60;0.60;;;15.10;93.40;;;;;;10567095;28;20101;-27
2022/12/30 15:19:30;;;;;;;2.83;0.70;;;15.30;92.20;;;;;;10563684;28;20133;-29
2022/12/30 15:24:32;;;;;;;1.05;0.55;;;14.90;94.10;;;;;;10564575;28;20050;-27
2022/12/30 15:29:35;;;;;;;2.20;0.93;;;14.70;95.10;;;;;;10541438;28;20110;-28
2022/12/30 15:34:40;;;;;;;3.60;0.57;;;14.10;98.40;;;;;;10541778;28;20056;-26
2022/12/30 15:39:45;;;;;;;0.50;0.50;;;14.50;98.20;;;;;;10544467;28;20123;-28
2022/12/30 15:44:49;;;;;;;1.42;0.65;;;14.50;97.10;;;;;;10538761;28;20056;-28
2022/12/30 15:49:54;;;;;;;2.72;1.10;;;14.00;99.90;;;;;;10543741;28;20054;-31
2022/12/30 15:54:59;;;;;;;1.38;0.88;;;12.30;99.90;;;;;;10546972;28;20055;-28
2022/12/30 16:00:04;;;;;;;0.98;0.82;;;12.50;99.90;;;;;;10537618;28;20075;-28
2022/12/30 16:05:16;;;;;;;1.55;1.05;;;12.40;99.90;;;;;;10541518;28;20048;-29
2022/12/30 16:10:27;;;;;;;1.35;0.93;;;12.00;99.90;;;;;;10531789;28;20093;-27
2022/12/30 16:15:35;;;;;;;2.17;0.80;;;12.10;99.90;;;;;;10542815;28;20091;-27
2022/12/30 16:20:53;;;;;;;2.15;1.05;;;12.30;99.90;;;;;;10531702;28;20536;-31
2022/12/30 16:25:57;;;;;;;6.30;1.23;;;12.10;99.90;;;;;;10531571;28;20048;-27
2022/12/30 16:30:59;;;;;;;2.30;0.82;;;12.00;99.90;;;;;;10530387;28;20382;-27
2022/12/30 16:36:05;;;;;;;4.90;1.52;;;12.30;99.90;;;;;;10531316;28;20504;-32
2022/12/30 16:41:08;;;;;;;4.53;1.05;;;12.00;99.90;;;;;;10532029;28;20080;-26
2022/12/30 16:46:16;;;;;;;4.57;1.08;;;12.10;99.90;;;;;;10536435;28;20120;-26
2022/12/30 16:51:23;;;;;;;7.28;2.38;;;12.60;99.90;;;;;;10530267;28;20055;-26
2022/12/30 16:56:25;;;;;;;6.78;1.52;;;12.50;99.90;;;;;;10535276;28;20080;-32
2022/12/30 17:01:29;;;;;;;12.48;1.77;;;12.40;99.90;;;;;;10517856;28;20888;-26
2022/12/30 17:06:32;;;;;;;17.77;2.22;;;12.30;99.90;;;;;;10514647;28;20835;-28
2022/12/30 17:11:34;;;;;;;20.55;2.80;;;12.40;99.90;;;;;;10526586;28;20044;-26
2022/12/30 17:16:36;;;;;;;21.37;3.43;;;12.20;99.90;;;;;;10528392;28;20083;-28
2022/12/30 17:21:42;;;;;;;23.70;3.80;;;12.40;99.90;;;;;;10518313;28;20075;-28
2022/12/30 17:26:45;;;;;;;16.73;2.28;;;12.40;99.90;;;;;;10524612;28;20127;-27
2022/12/30 17:31:48;;;;;;;21.75;2.97;;;12.70;99.90;;;;;;10533255;28;20059;-27
2022/12/30 17:36:51;;;;;;;30.53;4.07;;;12.70;99.90;;;;;;10524939;28;20048;-28
2022/12/30 17:41:53;;;;;;;28.42;5.18;;;12.00;99.90;;;;;;10519206;28;20056;-28
2022/12/30 17:46:55;;;;;;;25.70;5.07;;;11.80;99.90;;;;;;10524100;28;20506;-28
2022/12/30 17:51:58;;;;;;;36.15;4.78;;;12.10;99.90;;;;;;10526321;28;20131;-27
2022/12/30 17:57:02;;;;;;;37.30;6.07;;;11.90;99.90;;;;;;10529532;28;20483;-29
2022/12/30 18:02:03;;;;;;;41.60;4.85;;;12.10;99.90;;;;;;10519747;28;20509;-27
2022/12/30 18:07:07;;;;;;;30.90;4.15;;;11.80;99.90;;;;;;10514278;28;20055;-27
2022/12/30 18:12:11;;;;;;;24.88;3.88;;;12.30;99.90;;;;;;10523573;28;20389;-27
2022/12/30 18:17:14;;;;;;;26.50;4.28;;;11.90;99.90;;;;;;10523434;28;20083;-28
2022/12/30 18:22:17;;;;;;;28.67;5.10;;;12.10;99.90;;;;;;10525506;28;20111;-30
2022/12/30 18:27:20;;;;;;;17.73;3.03;;;11.70;99.90;;;;;;10520223;28;20560;-30
2022/12/30 18:32:21;;;;;;;38.17;5.10;;;11.70;99.90;;;;;;10523378;28;20225;-27
2022/12/30 18:37:25;;;;;;;20.95;2.95;;;11.80;99.90;;;;;;10527683;28;20051;-27
2022/12/30 18:42:27;;;;;;;22.95;3.53;;;12.10;99.90;;;;;;10529454;28;20109;-28
2022/12/30 18:47:29;;;;;;;21.15;3.33;;;12.00;99.90;;;;;;10531636;28;20044;-27
2022/12/30 18:52:32;;;;;;;19.15;3.35;;;11.90;99.90;;;;;;10534809;28;20097;-26
2022/12/30 18:57:34;;;;;;;23.10;4.20;;;12.20;99.90;;;;;;10537598;28;20637;-27
2022/12/30 19:02:36;;;;;;;25.10;3.58;;;12.20;99.90;;;;;;10524786;28;20067;-28
2022/12/30 19:07:39;;;;;;;26.30;4.43;;;12.00;99.90;;;;;;10527747;28;20048;-28
2022/12/30 19:12:41;;;;;;;30.45;3.22;;;12.10;99.90;;;;;;10542612;28;20094;-28
2022/12/30 19:17:43;;;;;;;29.65;5.18;;;12.20;99.90;;;;;;10533957;28;20782;-31
2022/12/30 19:22:46;;;;;;;34.90;6.05;;;11.80;99.90;;;;;;10528315;28;20480;-28
2022/12/30 19:27:48;;;;;;;19.80;4.05;;;12.10;99.90;;;;;;10522984;28;20051;-27
2022/12/30 19:32:50;;;;;;;26.33;2.97;;;12.20;99.90;;;;;;10535478;28;20138;-28
2022/12/30 19:37:53;;;;;;;15.15;2.42;;;12.40;99.90;;;;;;10524995;28;20091;-28
2022/12/30 19:42:55;;;;;;;;;;;12.30;99.90;;;;;;10534656;28;20121;-29
2022/12/30 19:47:57;;;;;;;13.40;2.35;;;12.60;99.90;;;;;;10515013;28;19924;-27
2022/12/30 19:53:00;;;;;;;8.90;2.17;;;12.40;99.90;;;;;;10525158;28;20040;-27
2022/12/30 19:58:02;;;;;;;11.02;1.98;;;12.50;99.90;;;;;;10525210;28;20670;-27
2022/12/30 20:03:04;;;;;;;16.80;2.58;;;12.50;99.90;;;;;;10524242;28;20098;-28
2022/12/30 20:08:07;;;;;;;17.50;2.92;;;12.00;99.90;;;;;;10536361;28;20405;-29
2022/12/30 20:13:09;;;;;;;17.30;2.75;;;11.90;99.90;;;;;;10530233;28;20037;-26
2022/12/30 20:18:11;;;;;;;15.40;3.08;;;12.20;99.90;;;;;;10516925;28;20525;-26
2022/12/30 20:23:14;;;;;;;21.70;3.60;;;12.30;99.90;;;;;;10517174;28;20131;-27
2022/12/30 20:28:16;;;;;;;10.27;2.00;;;12.20;99.90;;;;;;10524628;28;20473;-27
2022/12/30 20:33:18;;;;;;;10.75;2.33;;;12.20;99.90;;;;;;10533134;28;20044;-27
2022/12/30 20:38:21;;;;;;;10.23;1.50;;;12.60;99.90;;;;;;10515413;28;20049;-28
2022/12/30 20:43:23;;;;;;;15.57;2.40;;;12.40;99.90;;;;;;10526053;28;20044;-30
2022/12/30 20:48:25;;;;;;;12.50;1.80;;;12.20;99.90;;;;;;10521212;28;20051;-27
2022/12/30 20:53:28;;;;;;;15.77;2.00;;;12.30;99.90;;;;;;10510916;28;20052;-26
2022/12/30 20:58:31;;;;;;;21.15;2.83;;;12.60;99.90;;;;;;10519683;28;20143;-30
2022/12/30 21:03:33;;;;;;;16.35;2.53;;;12.60;99.90;;;;;;10525635;28;20048;-27
2022/12/30 21:08:37;;;;;;;17.87;2.63;;;12.40;99.90;;;;;;10524417;28;20052;-27
2022/12/30 21:13:40;;;;;;;19.65;2.70;;;12.40;99.90;;;;;;10517292;28;20084;-29
2022/12/30 21:18:42;;;;;;;16.52;1.80;;;12.40;99.90;;;;;;10526655;28;20147;-27
2022/12/30 21:23:46;;;;;;;14.05;3.25;;;12.30;99.90;;;;;;10514948;28;20064;-28
2022/12/30 21:28:50;;;;;;;19.98;3.10;;;12.60;99.90;;;;;;10519638;28;20080;-29
2022/12/30 21:33:52;;;;;;;13.30;1.70;;;12.70;99.90;;;;;;10522589;28;20044;-28
2022/12/30 22:05:50;;;;;;;11.07;1.63;;;12.60;99.90;;;;;;10515634;28;20123;-27
2022/12/30 22:10:56;;;;;;;14.25;1.58;;;12.40;99.90;;;;;;10515435;28;20052;-26
2022/12/30 22:15:58;;;;;;;3.90;1.90;;;12.70;99.90;;;;;;10527761;28;20056;-27
2022/12/30 22:21:00;;;;;;;4.72;1.08;;;12.70;99.90;;;;;;10531806;28;20052;-27
2022/12/30 22:26:03;;;;;;;11.45;1.30;;;12.50;99.90;;;;;;10526295;28;20093;-29
2022/12/30 22:31:05;;;;;;;16.27;1.52;;;12.50;99.90;;;;;;10518037;28;20079;-27
2022/12/30 22:36:08;;;;;;;5.22;0.82;;;12.40;99.90;;;;;;10518132;28;20135;-27
2022/12/30 22:41:11;;;;;;;4.35;1.15;;;12.60;99.90;;;;;;10534562;28;20055;-30
2022/12/30 22:46:13;;;;;;;7.10;1.20;;;12.70;99.90;;;;;;10508742;28;20255;-26
2022/12/30 22:51:16;;;;;;;6.55;1.30;;;12.40;99.90;;;;;;10526383;28;20505;-28
2022/12/30 22:56:19;;;;;;;8.05;1.20;;;12.40;99.90;;;;;;10533584;28;20488;-27
2022/12/30 23:01:21;;;;;;;6.68;1.20;;;12.00;99.90;;;;;;10524883;28;20118;-28
2022/12/30 23:06:23;;;;;;;9.93;1.90;;;12.10;99.90;;;;;;10524035;28;20040;-25
2022/12/30 23:11:27;;;;;;;8.07;1.43;;;12.30;99.90;;;;;;10522619;28;20071;-26
2022/12/30 23:16:29;;;;;;;6.15;1.45;;;12.30;99.90;;;;;;10522607;28;20087;-26
2022/12/30 23:21:32;;;;;;;12.43;1.85;;;12.30;99.90;;;;;;10533013;28;20044;-28
2022/12/30 23:26:37;;;;;;;12.70;2.50;;;12.10;99.90;;;;;;10531114;28;20048;-28
2022/12/30 23:31:39;;;;;;;14.95;2.25;;;12.20;99.90;;;;;;10526621;28;20048;-29
2022/12/30 23:36:44;;;;;;;14.73;2.10;;;12.10;99.90;;;;;;10533089;28;20114;-26
2022/12/30 23:41:48;;;;;;;13.93;2.38;;;12.00;99.90;;;;;;10517254;28;20047;-28
2022/12/30 23:46:50;;;;;;;10.10;1.70;;;12.50;99.90;;;;;;10525784;28;20054;-29
2022/12/30 23:51:51;;;;;;;16.48;3.30;;;12.10;99.90;;;;;;10515586;28;20071;-27
2022/12/30 23:56:55;;;;;;;22.20;2.88;;;11.80;99.90;;;;;;10527056;28;20148;-27
